Time;durP1;ratioP1;P1;durP2;ratioP2;P2;SDS_P1;SDS_P2;PMS_P1;PMS_P2;Temp;Humidity;BMP_temperature;BMP_pressure;BME280_temperature;BME280_humidity;BME280_pressure;Samples;Min_cycle;Max_cycle;Signal;HPM_P1;HPM_P2
2023/05/12 00:01:18;;;;;;;7.80;4.68;;;;;;;12.39;100.00;101360.28;6225308;28;20042;-72
2023/05/12 00:04:20;;;;;;;7.32;4.15;;;;;;;12.38;100.00;101363.84;6223210;28;20172;-72
2023/05/12 00:07:21;;;;;;;7.95;4.60;;;;;;;12.34;100.00;101364.94;6229141;28;20045;-72
2023/05/12 00:10:24;;;;;;;7.07;4.70;;;;;;;12.30;100.00;101361.59;6228924;28;20057;-72
2023/05/12 00:13:25;;;;;;;6.93;4.30;;;;;;;12.26;100.00;101364.47;6226098;28;21414;-72
2023/05/12 00:16:27;;;;;;;6.25;3.60;;;;;;;12.26;100.00;101373.22;6228981;28;20378;-72
2023/05/12 00:19:28;;;;;;;7.47;3.65;;;;;;;12.23;100.00;101364.63;6228860;28;20562;-73
2023/05/12 00:22:30;;;;;;;6.28;3.97;;;;;;;12.18;100.00;101368.34;6228968;28;20096;-72
2023/05/12 00:25:33;;;;;;;7.00;4.47;;;;;;;12.16;100.00;101372.81;6228958;28;20453;-73
2023/05/12 00:28:34;;;;;;;8.88;5.43;;;;;;;12.10;100.00;101365.25;6228611;28;20046;-72
2023/05/12 00:31:36;;;;;;;5.85;3.80;;;;;;;12.08;100.00;101374.13;6228487;28;20045;-72
2023/05/12 00:34:37;;;;;;;8.00;4.57;;;;;;;12.04;100.00;101365.56;6228598;28;20053;-72
2023/05/12 00:37:38;;;;;;;6.57;3.95;;;;;;;12.00;100.00;101371.91;6228696;28;20049;-73
2023/05/12 00:40:41;;;;;;;8.82;4.18;;;;;;;12.02;100.00;101380.56;6222229;28;20042;-72
2023/05/12 00:43:42;;;;;;;6.18;3.60;;;;;;;12.03;100.00;101374.34;6228599;28;20053;-73
2023/05/12 00:46:44;;;;;;;4.80;3.08;;;;;;;11.97;100.00;101382.56;6228322;28;20054;-72
2023/05/12 00:49:46;;;;;;;6.15;4.28;;;;;;;11.98;100.00;101380.78;6228137;28;20363;-72
2023/05/12 00:52:48;;;;;;;8.00;4.45;;;;;;;11.90;100.00;101379.41;6228279;28;20053;-72
2023/05/12 00:55:52;;;;;;;6.85;4.57;;;;;;;11.71;100.00;101382.94;6228089;28;20069;-72
2023/05/12 00:58:53;;;;;;;5.10;4.10;;;;;;;11.77;100.00;101377.41;6225898;28;20057;-72
2023/05/12 01:01:55;;;;;;;6.38;4.38;;;;;;;11.80;100.00;101378.09;6228054;28;20054;-73
2023/05/12 01:04:57;;;;;;;6.63;4.32;;;;;;;11.81;100.00;101382.44;6228136;28;20049;-72
2023/05/12 01:08:00;;;;;;;6.22;3.95;;;;;;;11.85;100.00;101384.00;6226784;28;20073;-72
2023/05/12 01:11:03;;;;;;;7.60;4.18;;;;;;;11.86;100.00;101383.09;6227782;28;20128;-72
2023/05/12 01:14:04;;;;;;;6.45;3.63;;;;;;;11.93;100.00;101386.28;6227666;28;20358;-72
2023/05/12 01:17:10;;;;;;;7.10;4.85;;;;;;;11.93;100.00;101376.59;6227791;28;20446;-72
2023/05/12 01:20:14;;;;;;;10.85;4.35;;;;;;;11.97;100.00;101376.47;6227421;28;20042;-72
2023/05/12 01:23:20;;;;;;;6.63;5.03;;;;;;;11.99;100.00;101382.50;6227749;28;20054;-72
2023/05/12 01:26:23;;;;;;;7.30;3.67;;;;;;;12.06;100.00;101389.19;6227390;28;20050;-72
2023/05/12 01:29:25;;;;;;;7.00;4.30;;;;;;;12.05;100.00;101383.06;6227244;28;20451;-72
2023/05/12 01:32:27;;;;;;;6.45;4.07;;;;;;;12.00;100.00;101387.69;6226961;28;20702;-72
2023/05/12 01:35:28;;;;;;;8.00;4.45;;;;;;;12.09;100.00;101386.41;6227368;28;20050;-72
2023/05/12 01:38:30;;;;;;;6.22;4.57;;;;;;;12.03;100.00;101389.31;6226939;28;20046;-72
2023/05/12 01:41:32;;;;;;;4.45;3.35;;;;;;;12.07;100.00;101396.16;6227372;28;20046;-72
2023/05/12 01:44:34;;;;;;;6.72;4.72;;;;;;;12.09;100.00;101404.84;6227163;28;20363;-72
2023/05/12 01:47:35;;;;;;;7.53;4.78;;;;;;;12.03;100.00;101400.69;6226858;28;20050;-72
2023/05/12 01:50:37;;;;;;;5.78;3.83;;;;;;;11.96;100.00;101401.94;6226724;28;20453;-72
2023/05/12 01:53:38;;;;;;;5.40;3.80;;;;;;;12.01;100.00;101405.22;6225477;28;20050;-72
2023/05/12 01:56:41;;;;;;;4.78;3.58;;;;;;;12.03;100.00;101399.84;6222541;28;20053;-72
2023/05/12 01:59:42;;;;;;;6.35;4.53;;;;;;;12.04;100.00;101401.59;6223432;28;20054;-72
2023/05/12 02:02:43;;;;;;;6.00;4.18;;;;;;;12.05;100.00;101403.28;6226635;28;20053;-72
2023/05/12 02:05:45;;;;;;;6.13;4.38;;;;;;;12.07;100.00;101411.94;6226206;28;20058;-72
2023/05/12 02:08:46;;;;;;;7.65;5.10;;;;;;;12.04;100.00;101415.59;6226524;28;20050;-72
2023/05/12 02:11:49;;;;;;;6.57;4.00;;;;;;;12.06;100.00;101408.47;6226216;28;20068;-72
2023/05/12 02:14:50;;;;;;;8.73;4.63;;;;;;;12.03;100.00;101411.25;6226978;28;20053;-72
2023/05/12 02:17:53;;;;;;;7.10;4.20;;;;;;;12.05;100.00;101409.41;6222510;28;20060;-72
2023/05/12 02:20:54;;;;;;;6.88;4.93;;;;;;;12.04;100.00;101409.50;6226342;28;20042;-72
2023/05/12 02:23:56;;;;;;;7.43;4.95;;;;;;;12.00;100.00;101408.78;6226304;28;20056;-72
2023/05/12 02:26:58;;;;;;;5.80;3.55;;;;;;;12.03;100.00;101405.13;6219817;28;20245;-72
2023/05/12 02:30:00;;;;;;;6.45;4.30;;;;;;;12.03;100.00;101402.50;6225923;28;20050;-72
2023/05/12 02:33:01;;;;;;;7.45;4.50;;;;;;;12.04;100.00;101409.50;6226449;28;20046;-73
2023/05/12 02:36:03;;;;;;;6.47;4.50;;;;;;;12.07;100.00;101414.59;6225822;28;20053;-72
2023/05/12 02:39:04;;;;;;;5.88;3.78;;;;;;;12.09;100.00;101404.84;6225882;28;20056;-72
2023/05/12 02:42:07;;;;;;;6.68;4.13;;;;;;;12.12;100.00;101399.41;6226279;28;20046;-72
2023/05/12 02:45:10;;;;;;;8.73;5.13;;;;;;;12.07;100.00;101404.03;6218293;28;20061;-72
2023/05/12 02:48:11;;;;;;;7.25;4.60;;;;;;;12.05;100.00;101405.91;6225690;28;20064;-72
2023/05/12 02:51:12;;;;;;;4.68;3.70;;;;;;;12.07;100.00;101407.53;6225715;28;20077;-72
2023/05/12 02:54:14;;;;;;;7.28;5.15;;;;;;;12.06;100.00;101400.56;6225995;28;20054;-73
2023/05/12 02:57:17;;;;;;;7.90;5.03;;;;;;;12.07;100.00;101404.91;6225739;28;20058;-72
2023/05/12 03:00:18;;;;;;;6.93;4.07;;;;;;;12.06;100.00;101397.06;6225472;28;20362;-72
2023/05/12 03:03:20;;;;;;;6.35;4.05;;;;;;;12.05;100.00;101401.50;6225443;28;20049;-72
2023/05/12 03:06:21;;;;;;;5.70;4.07;;;;;;;12.06;100.00;101411.09;6226038;28;20057;-72
2023/05/12 03:09:22;;;;;;;8.10;4.30;;;;;;;12.05;100.00;101403.28;6225588;28;20460;-72
2023/05/12 03:12:27;;;;;;;7.15;4.95;;;;;;;12.06;100.00;101405.84;6225617;28;20046;-72
2023/05/12 03:15:28;;;;;;;8.85;5.18;;;;;;;12.09;100.00;101412.75;6222788;28;20124;-72
2023/05/12 03:18:30;;;;;;;6.13;3.60;;;;;;;12.13;100.00;101399.34;6219069;28;20053;-72
2023/05/12 03:21:31;;;;;;;6.40;3.83;;;;;;;12.13;100.00;101404.63;6215700;28;20435;-72
2023/05/12 03:24:33;;;;;;;8.18;4.45;;;;;;;12.12;100.00;101402.03;6208748;28;20069;-72
2023/05/12 03:27:35;;;;;;;10.07;4.70;;;;;;;12.13;100.00;101411.66;6209538;28;20041;-72
2023/05/12 03:30:38;;;;;;;7.95;5.30;;;;;;;12.12;100.00;101405.53;6203312;28;20046;-73
2023/05/12 03:33:39;;;;;;;8.55;5.47;;;;;;;12.12;100.00;101410.78;6209833;28;20587;-73
2023/05/12 03:36:42;;;;;;;7.40;5.07;;;;;;;12.15;100.00;101417.69;6209900;28;20359;-73
2023/05/12 03:39:43;;;;;;;8.60;4.65;;;;;;;12.18;100.00;101418.41;6211000;28;20042;-72
2023/05/12 03:42:46;;;;;;;9.88;5.53;;;;;;;12.20;100.00;101415.69;6208678;28;20042;-72
2023/05/12 03:45:47;;;;;;;8.50;5.35;;;;;;;12.18;100.00;101412.28;6208038;28;20052;-72
2023/05/12 03:48:48;;;;;;;9.73;6.28;;;;;;;12.16;100.00;101419.41;6208600;28;20042;-72
2023/05/12 03:51:50;;;;;;;11.02;6.47;;;;;;;12.14;100.00;101418.63;6212736;28;20038;-72
2023/05/12 03:54:51;;;;;;;9.20;5.18;;;;;;;12.15;100.00;101418.56;6212157;28;20061;-72
2023/05/12 03:57:54;;;;;;;7.88;6.07;;;;;;;12.14;100.00;101418.63;6205457;28;20053;-72
2023/05/12 04:00:56;;;;;;;8.52;5.55;;;;;;;12.10;100.00;101417.06;6204243;28;20053;-72
2023/05/12 04:03:58;;;;;;;11.00;5.95;;;;;;;12.09;100.00;101415.38;6208379;28;20046;-72
2023/05/12 04:06:59;;;;;;;9.07;5.80;;;;;;;12.09;100.00;101418.88;6207323;28;20132;-72
2023/05/12 04:10:01;;;;;;;8.95;6.30;;;;;;;12.10;100.00;101415.28;6207283;28;20038;-72
2023/05/12 04:13:04;;;;;;;11.20;6.55;;;;;;;12.11;100.00;101419.63;6204373;28;20049;-72
2023/05/12 04:16:06;;;;;;;9.68;6.20;;;;;;;12.10;100.00;101417.06;6213732;28;20049;-73
2023/05/12 04:19:07;;;;;;;11.73;7.32;;;;;;;12.10;100.00;101439.00;6228829;28;20072;-72
2023/05/12 04:22:08;;;;;;;11.10;7.03;;;;;;;12.06;100.00;101434.81;6228886;28;20050;-72
2023/05/12 04:25:10;;;;;;;10.68;6.80;;;;;;;12.11;100.00;101430.16;6228845;28;20382;-72
2023/05/12 04:28:13;;;;;;;11.35;6.68;;;;;;;12.12;100.00;101437.13;6228588;28;20503;-72
2023/05/12 04:31:14;;;;;;;9.52;6.03;;;;;;;12.11;100.00;101440.72;6228707;28;20050;-72
2023/05/12 04:34:15;;;;;;;11.18;6.85;;;;;;;12.09;100.00;101452.25;6228675;28;20054;-72
2023/05/12 04:37:17;;;;;;;13.57;8.38;;;;;;;12.05;100.00;101459.47;6228520;28;20065;-72
2023/05/12 04:40:18;;;;;;;14.10;8.77;;;;;;;12.01;100.00;101455.25;6228141;28;20061;-72
2023/05/12 04:43:21;;;;;;;12.52;7.80;;;;;;;12.08;100.00;101454.06;6226866;28;20041;-72
2023/05/12 04:46:22;;;;;;;10.65;6.38;;;;;;;12.14;100.00;101466.91;6228364;28;20057;-72
2023/05/12 04:49:24;;;;;;;11.35;6.88;;;;;;;12.18;100.00;101460.56;6228170;28;20057;-72
2023/05/12 04:52:25;;;;;;;12.43;7.05;;;;;;;12.22;100.00;101463.91;6222153;28;20351;-72
2023/05/12 04:55:27;;;;;;;11.00;7.18;;;;;;;12.14;100.00;101472.19;6228369;28;20136;-72
2023/05/12 04:58:30;;;;;;;10.55;6.43;;;;;;;12.21;100.00;101471.88;6227892;28;20046;-72
2023/05/12 05:01:31;;;;;;;11.27;7.57;;;;;;;12.23;100.00;101484.06;6228466;28;20058;-72
2023/05/12 05:04:32;;;;;;;12.88;7.85;;;;;;;12.28;100.00;101487.31;6227872;28;20053;-72
2023/05/12 05:07:34;;;;;;;8.82;6.30;;;;;;;12.32;100.00;101474.88;6227993;28;20049;-72
2023/05/12 05:10:35;;;;;;;13.80;8.05;;;;;;;12.31;100.00;101487.19;6227645;28;20046;-72
2023/05/12 05:13:38;;;;;;;10.73;6.88;;;;;;;12.37;100.00;101491.31;6227895;28;20046;-72
2023/05/12 05:16:39;;;;;;;11.63;7.85;;;;;;;12.40;100.00;101499.06;6227612;28;20057;-72
2023/05/12 05:19:41;;;;;;;12.07;7.55;;;;;;;12.40;100.00;101493.78;6227898;28;20049;-72
2023/05/12 05:22:42;;;;;;;10.80;7.25;;;;;;;12.39;100.00;101521.06;6227631;28;20465;-72
2023/05/12 05:25:43;;;;;;;12.68;7.93;;;;;;;12.41;100.00;101501.63;6227599;28;20053;-72
2023/05/12 05:28:46;;;;;;;11.20;7.45;;;;;;;12.49;100.00;101501.25;6227345;28;20061;-72
2023/05/12 05:31:48;;;;;;;11.93;7.18;;;;;;;12.53;100.00;101508.06;6227022;28;20046;-72
2023/05/12 05:34:49;;;;;;;13.20;7.85;;;;;;;12.57;100.00;101501.69;6227652;28;20133;-72
2023/05/12 05:37:52;;;;;;;10.45;7.28;;;;;;;12.62;100.00;101525.22;6226332;28;20054;-72
2023/05/12 05:40:53;;;;;;;11.05;7.65;;;;;;;12.62;100.00;101533.13;6226641;28;20537;-72
2023/05/12 05:43:56;;;;;;;10.85;6.97;;;;;;;12.65;100.00;101535.63;6226557;28;20354;-73
2023/05/12 05:46:58;;;;;;;18.05;10.57;;;;;;;12.75;100.00;101521.03;6226565;28;20358;-72
2023/05/12 05:49:59;;;;;;;12.13;8.20;;;;;;;12.72;100.00;101526.47;6226902;28;20180;-72
2023/05/12 05:53:00;;;;;;;9.52;5.97;;;;;;;12.72;100.00;101539.66;6226864;28;20346;-72
2023/05/12 05:56:02;;;;;;;11.35;7.25;;;;;;;12.75;100.00;101528.94;6226420;28;20068;-72
2023/05/12 05:59:05;;;;;;;10.57;7.68;;;;;;;12.77;100.00;101534.16;6224620;28;20050;-72
2023/05/12 06:02:06;;;;;;;10.52;6.50;;;;;;;12.83;100.00;101537.34;6224145;28;20042;-72
2023/05/12 06:05:09;;;;;;;11.02;7.20;;;;;;;12.89;100.00;101552.00;6224753;28;20354;-72
2023/05/12 06:08:12;;;;;;;13.75;6.88;;;;;;;12.91;100.00;101555.44;6225892;28;20049;-72
2023/05/12 06:11:13;;;;;;;11.68;6.65;;;;;;;12.91;100.00;101558.91;6225167;28;20049;-72
2023/05/12 06:14:16;;;;;;;13.45;6.50;;;;;;;12.99;100.00;101549.75;6225837;28;20046;-72
2023/05/12 06:17:17;;;;;;;9.60;5.88;;;;;;;13.02;100.00;101553.09;6225783;28;20049;-72
2023/05/12 06:20:19;;;;;;;9.48;6.20;;;;;;;13.06;100.00;101554.66;6226201;28;20057;-72
2023/05/12 06:23:20;;;;;;;8.18;5.50;;;;;;;13.09;100.00;101551.00;6226342;28;20125;-72
2023/05/12 06:26:22;;;;;;;9.25;5.68;;;;;;;13.11;100.00;101557.91;6226399;28;20050;-72
2023/05/12 06:29:24;;;;;;;9.18;5.78;;;;;;;13.12;100.00;101556.97;6226189;28;20052;-72
2023/05/12 06:32:26;;;;;;;8.57;5.65;;;;;;;13.19;100.00;101560.16;6226058;28;20456;-72
2023/05/12 06:35:27;;;;;;;10.07;5.88;;;;;;;13.26;100.00;101561.56;6226039;28;20042;-72
2023/05/12 06:38:29;;;;;;;11.98;6.80;;;;;;;13.29;100.00;101568.47;6225715;28;20053;-72
2023/05/12 06:41:32;;;;;;;10.38;6.50;;;;;;;13.27;100.00;101568.56;6226074;28;20042;-72
2023/05/12 06:44:35;;;;;;;11.30;6.47;;;;;;;13.31;100.00;101574.56;6225906;28;20128;-72
2023/05/12 06:47:36;;;;;;;8.48;5.20;;;;;;;13.37;100.00;101576.88;6225947;28;20046;-72
2023/05/12 06:50:37;;;;;;;10.55;6.50;;;;;;;13.37;100.00;101564.53;6225653;28;20042;-72
2023/05/12 06:53:40;;;;;;;8.60;4.93;;;;;;;13.41;100.00;101567.88;6226049;28;20052;-72
2023/05/12 06:56:41;;;;;;;11.77;5.28;;;;;;;13.47;100.00;101574.59;6225619;28;20054;-72
2023/05/12 06:59:44;;;;;;;9.82;5.68;;;;;;;13.50;100.00;101574.44;6223905;28;20367;-72
2023/05/12 07:02:45;;;;;;;8.65;5.57;;;;;;;13.59;100.00;101574.81;6225474;28;20057;-72
2023/05/12 07:05:47;;;;;;;9.43;6.38;;;;;;;13.65;100.00;101573.63;6226526;28;20061;-72
2023/05/12 07:08:48;;;;;;;11.43;5.57;;;;;;;13.69;100.00;101578.66;6230635;28;20477;-72
2023/05/12 07:11:50;;;;;;;9.60;6.05;;;;;;;13.70;100.00;101577.72;6230539;28;20050;-72
2023/05/12 07:14:52;;;;;;;8.65;5.68;;;;;;;13.82;100.00;101573.59;6230728;28;20056;-73
2023/05/12 07:17:54;;;;;;;8.55;5.32;;;;;;;13.82;100.00;101576.25;6227739;28;20057;-73
2023/05/12 07:20:56;;;;;;;11.00;5.35;;;;;;;13.86;100.00;101575.13;6230464;28;20046;-72
2023/05/12 07:23:58;;;;;;;7.32;5.00;;;;;;;13.89;100.00;101579.38;6230279;28;20480;-72
2023/05/12 07:26:59;;;;;;;6.30;4.45;;;;;;;13.90;100.00;101578.47;6230422;28;20060;-72
2023/05/12 07:30:02;;;;;;;7.72;4.78;;;;;;;13.90;100.00;101571.41;6229969;28;20069;-73
2023/05/12 07:33:04;;;;;;;8.73;5.10;;;;;;;14.01;100.00;101577.88;6226284;28;20077;-72
2023/05/12 07:36:07;;;;;;;7.00;4.70;;;;;;;14.05;100.00;101576.78;6229251;28;20482;-72
2023/05/12 07:39:08;;;;;;;8.45;5.32;;;;;;;14.10;100.00;101578.22;6229806;28;20049;-73
2023/05/12 07:42:10;;;;;;;8.27;4.32;;;;;;;14.18;100.00;101578.66;6230014;28;20125;-72
2023/05/12 07:45:13;;;;;;;6.45;4.50;;;;;;;14.20;100.00;101575.94;6229654;28;20104;-72
2023/05/12 07:48:14;;;;;;;8.13;4.97;;;;;;;14.25;100.00;101580.97;6220957;28;20084;-73
2023/05/12 07:51:15;;;;;;;10.20;4.60;;;;;;;14.31;100.00;101581.50;6229065;28;20446;-73
2023/05/12 07:54:17;;;;;;;7.88;4.68;;;;;;;14.32;100.00;101577.06;6229527;28;20073;-73
2023/05/12 07:57:18;;;;;;;5.80;4.07;;;;;;;14.37;100.00;101582.94;6226334;28;20050;-73
2023/05/12 08:00:21;;;;;;;7.05;4.38;;;;;;;14.56;100.00;101585.44;6228402;28;20446;-72
2023/05/12 08:03:23;;;;;;;6.55;4.38;;;;;;;14.51;100.00;101577.75;6224653;28;20057;-73
2023/05/12 08:06:24;;;;;;;5.68;3.95;;;;;;;14.62;100.00;101579.78;6228692;28;20050;-72
2023/05/12 08:09:25;;;;;;;5.28;3.40;;;;;;;14.68;100.00;101582.09;6226468;28;20053;-73
2023/05/12 08:12:27;;;;;;;7.22;4.47;;;;;;;14.78;100.00;101577.13;6227888;28;20046;-72
2023/05/12 08:15:29;;;;;;;8.65;4.05;;;;;;;14.85;100.00;101581.09;6228460;28;20050;-72
2023/05/12 08:18:31;;;;;;;6.10;4.07;;;;;;;14.93;100.00;101589.47;6220939;28;20049;-71
2023/05/12 08:21:32;;;;;;;4.82;3.58;;;;;;;14.92;100.00;101575.38;6229059;28;20046;-72
2023/05/12 08:24:33;;;;;;;13.00;4.25;;;;;;;15.01;100.00;101584.56;6228732;28;20038;-72
2023/05/12 08:27:35;;;;;;;4.97;3.53;;;;;;;15.07;100.00;101586.84;6228963;28;20041;-72
2023/05/12 08:30:37;;;;;;;5.63;3.45;;;;;;;15.10;100.00;101589.34;6228152;28;20068;-72
2023/05/12 08:33:39;;;;;;;5.85;4.15;;;;;;;15.22;100.00;101593.91;6228753;28;20042;-72
2023/05/12 08:36:40;;;;;;;5.53;3.72;;;;;;;15.30;100.00;101596.09;6228589;28;20469;-71
2023/05/12 08:39:42;;;;;;;7.65;4.10;;;;;;;15.35;100.00;101596.69;6228518;28;20162;-72
2023/05/12 08:42:49;;;;;;;10.00;3.38;;;;;;;15.45;100.00;101595.19;6226666;28;20045;-72
2023/05/12 08:45:56;;;;;;;5.10;3.20;;;;;;;15.52;100.00;101602.75;6228492;28;20053;-71
2023/05/12 08:49:00;;;;;;;4.38;2.70;;;;;;;15.58;100.00;101590.00;6228198;28;20061;-72
2023/05/12 08:52:02;;;;;;;5.55;3.30;;;;;;;15.59;100.00;101591.69;6228569;28;20053;-72
2023/05/12 08:55:05;;;;;;;5.80;3.00;;;;;;;15.62;100.00;101594.16;6228249;28;20042;-71
2023/05/12 08:58:08;;;;;;;4.15;3.03;;;;;;;15.62;100.00;101588.84;6213675;28;20046;-71
2023/05/12 09:01:13;;;;;;;5.35;3.25;;;;;;;15.73;100.00;101593.53;6227340;28;20050;-71
2023/05/12 09:04:15;;;;;;;9.63;3.03;;;;;;;15.87;100.00;101598.00;6228002;28;20129;-72
2023/05/12 09:07:18;;;;;;;3.28;2.85;;;;;;;15.90;100.00;101596.00;6227394;28;20053;-73
2023/05/12 09:10:21;;;;;;;5.13;3.05;;;;;;;15.95;100.00;101593.91;6226146;28;20050;-72
2023/05/12 09:13:28;;;;;;;5.53;3.28;;;;;;;16.05;100.00;101598.66;6227267;28;20569;-71
2023/05/12 09:16:33;;;;;;;5.13;3.35;;;;;;;16.06;100.00;101590.59;6222872;28;20342;-71
2023/05/12 09:19:35;;;;;;;5.82;3.10;;;;;;;16.16;100.00;101593.50;6227086;28;20053;-71
2023/05/12 09:22:38;;;;;;;4.75;3.15;;;;;;;16.19;100.00;101593.31;6227442;28;20050;-71
2023/05/12 09:25:39;;;;;;;6.30;2.75;;;;;;;16.27;100.00;101588.38;6227649;28;20053;-71
2023/05/12 09:28:41;;;;;;;3.67;2.40;;;;;;;16.34;100.00;101592.34;6226407;28;20053;-71
2023/05/12 09:31:51;;;;;;;3.45;2.60;;;;;;;16.40;100.00;101594.63;6227347;28;20050;-71
2023/05/12 09:34:52;;;;;;;6.45;3.17;;;;;;;16.49;100.00;101595.81;6225374;28;20057;-70
2023/05/12 09:37:53;;;;;;;6.57;3.47;;;;;;;16.53;100.00;101589.34;6226618;28;20061;-71
2023/05/12 09:40:55;;;;;;;4.60;3.08;;;;;;;16.60;100.00;101595.13;6220938;28;20358;-72
2023/05/12 09:43:56;;;;;;;4.93;3.15;;;;;;;16.61;100.00;101595.00;6226976;28;20469;-72
2023/05/12 09:47:08;;;;;;;6.47;3.05;;;;;;;16.70;100.00;101585.59;6226839;28;20366;-72
2023/05/12 09:50:11;;;;;;;3.67;2.55;;;;;;;16.74;100.00;101584.47;6226665;28;20057;-72
2023/05/12 09:53:13;;;;;;;4.07;2.67;;;;;;;16.85;100.00;101584.63;6226839;28;20416;-73
2023/05/12 09:56:15;;;;;;;6.22;2.97;;;;;;;17.10;100.00;101589.16;6226725;28;20060;-71
2023/05/12 09:59:18;;;;;;;3.90;2.70;;;;;;;17.13;100.00;101591.59;6226440;28;20057;-71
2023/05/12 10:02:20;;;;;;;3.45;2.80;;;;;;;17.24;100.00;101586.41;6218005;28;20050;-71
2023/05/12 10:05:23;;;;;;;10.57;2.97;;;;;;;17.26;100.00;101583.66;6220826;28;20053;-71
2023/05/12 10:08:29;;;;;;;3.67;2.55;;;;;;;17.37;100.00;101593.53;6226234;28;20062;-71
2023/05/12 10:11:32;;;;;;;4.60;3.15;;;;;;;17.47;100.00;101591.94;6226792;28;20054;-71
2023/05/12 10:14:34;;;;;;;5.65;3.08;;;;;;;17.65;100.00;101595.16;6226211;28;20120;-72
2023/05/12 10:17:39;;;;;;;4.28;2.75;;;;;;;17.72;100.00;101586.66;6226474;28;20061;-71
2023/05/12 10:20:43;;;;;;;2.55;2.28;;;;;;;17.96;100.00;101586.75;6226150;28;20053;-71
2023/05/12 10:23:46;;;;;;;2.58;2.17;;;;;;;18.10;100.00;101585.75;6226119;28;20363;-71
2023/05/12 10:26:48;;;;;;;4.15;2.40;;;;;;;18.12;100.00;101588.31;6226076;28;20327;-71
2023/05/12 10:29:50;;;;;;;2.63;2.33;;;;;;;18.15;100.00;101585.44;6225494;28;20057;-71
2023/05/12 10:32:53;;;;;;;3.45;2.42;;;;;;;18.16;100.00;101587.97;6226160;28;20053;-71
2023/05/12 10:35:54;;;;;;;3.85;2.20;;;;;;;18.33;100.00;101583.25;6225909;28;20053;-71
2023/05/12 10:39:04;;;;;;;3.63;2.30;;;;;;;18.56;100.00;101602.88;6225951;28;20050;-71
2023/05/12 10:42:07;;;;;;;6.63;2.85;;;;;;;18.64;100.00;101597.84;6225870;28;20046;-71
2023/05/12 10:45:16;;;;;;;5.80;2.38;;;;;;;18.71;100.00;101599.09;6226040;28;20129;-71
2023/05/12 10:48:19;;;;;;;2.75;1.92;;;;;;;18.94;100.00;101586.72;6225543;28;20057;-71
2023/05/12 10:51:22;;;;;;;2.95;2.08;;;;;;;19.14;100.00;101594.09;6225794;28;20351;-71
2023/05/12 10:54:25;;;;;;;3.35;2.05;;;;;;;19.04;100.00;101587.75;6220252;28;20046;-72
2023/05/12 10:57:27;;;;;;;3.03;2.05;;;;;;;18.99;100.00;101585.44;6217555;28;20081;-71
2023/05/12 11:00:29;;;;;;;4.28;2.20;;;;;;;19.12;100.00;101589.81;6222313;28;20448;-71
2023/05/12 11:03:33;;;;;;;4.13;2.03;;;;;;;19.16;100.00;101594.81;6220562;28;20052;-71
2023/05/12 11:06:35;;;;;;;6.03;1.85;;;;;;;19.23;100.00;101588.06;6222055;28;20057;-71
2023/05/12 11:09:37;;;;;;;3.55;2.17;;;;;;;19.45;100.00;101583.75;6225338;28;20045;-71
2023/05/12 11:12:39;;;;;;;4.15;1.95;;;;;;;19.75;100.00;101586.69;6221213;28;20057;-71
2023/05/12 11:15:43;;;;;;;4.18;2.40;;;;;;;19.87;98.66;101590.22;6225356;28;20046;-71
2023/05/12 11:18:47;;;;;;;2.83;1.98;;;;;;;19.98;96.90;101592.03;6221673;28;20335;-72
2023/05/12 11:21:48;;;;;;;2.35;2.00;;;;;;;20.12;100.00;101586.47;6225379;28;20057;-71
2023/05/12 11:24:51;;;;;;;5.70;1.50;;;;;;;20.11;100.00;101586.56;6225598;28;20072;-71
2023/05/12 11:27:53;;;;;;;6.32;2.08;;;;;;;20.19;99.67;101581.47;6223208;28;20137;-71
2023/05/12 11:30:54;;;;;;;6.20;2.00;;;;;;;20.18;100.00;101590.47;6223750;28;20057;-71
2023/05/12 11:34:03;;;;;;;4.18;2.40;;;;;;;20.27;100.00;101590.56;6223826;28;20499;-71
2023/05/12 11:37:05;;;;;;;3.83;1.92;;;;;;;20.09;99.88;101591.19;6225374;28;20362;-70
2023/05/12 11:40:17;;;;;;;3.45;1.98;;;;;;;19.76;97.23;101591.09;6224976;28;20137;-71
2023/05/12 11:43:20;;;;;;;2.30;1.98;;;;;;;19.52;99.79;101595.63;6225597;28;20060;-68
2023/05/12 11:46:26;;;;;;;2.65;2.05;;;;;;;19.49;100.00;101594.06;6224541;28;20332;-68
2023/05/12 11:49:30;;;;;;;3.47;2.13;;;;;;;19.41;98.67;101598.28;6219893;28;20054;-67
2023/05/12 11:52:32;;;;;;;4.75;2.17;;;;;;;19.36;100.00;101587.97;6225538;28;20053;-69
2023/05/12 11:55:33;;;;;;;3.33;2.05;;;;;;;19.54;100.00;101596.38;6232988;28;20042;-69
2023/05/12 11:58:34;;;;;;;3.85;1.75;;;;;;;20.01;95.67;101597.97;6228860;28;20068;-70
2023/05/12 12:01:45;;;;;;;2.03;1.65;;;;;;;20.54;78.07;101588.47;6229643;28;20538;-69
2023/05/12 12:04:48;;;;;;;4.65;2.05;;;;;;;20.97;77.14;101591.94;6229596;28;20057;-69
2023/05/12 12:07:49;;;;;;;3.08;1.92;;;;;;;21.24;79.91;101588.75;6229498;28;20168;-72
2023/05/12 12:10:50;;;;;;;2.33;1.35;;;;;;;21.44;66.26;101586.25;6229533;28;20050;-69
2023/05/12 12:13:55;;;;;;;2.63;1.70;;;;;;;21.78;65.41;101579.66;6228949;28;20050;-69
2023/05/12 12:16:57;;;;;;;5.55;2.08;;;;;;;21.89;66.44;101593.94;6227895;28;20046;-71
2023/05/12 12:19:59;;;;;;;2.20;1.70;;;;;;;21.79;63.82;101593.88;6228562;28;20374;-71
2023/05/12 12:23:01;;;;;;;1.98;1.50;;;;;;;22.12;59.85;101584.78;6229022;28;20457;-69
2023/05/12 12:26:02;;;;;;;2.40;1.65;;;;;;;22.40;57.02;101593.00;6228811;28;20355;-70
2023/05/12 12:29:04;;;;;;;3.13;1.40;;;;;;;22.54;52.02;101584.56;6226559;28;20069;-72
2023/05/12 12:32:05;;;;;;;2.30;1.50;;;;;;;22.48;55.15;101583.31;6225567;28;20389;-72
2023/05/12 12:35:08;;;;;;;3.95;1.70;;;;;;;22.07;57.69;101591.47;6223441;28;20056;-72
2023/05/12 12:38:10;;;;;;;1.70;1.42;;;;;;;21.65;55.14;101586.22;6222844;28;20050;-72
2023/05/12 12:41:11;;;;;;;3.53;1.70;;;;;;;21.27;57.69;101591.19;6224035;28;20060;-73
2023/05/12 12:44:12;;;;;;;1.90;1.60;;;;;;;20.88;56.24;101591.88;6228542;28;20041;-72
2023/05/12 12:47:14;;;;;;;2.53;1.83;;;;;;;20.69;59.01;101598.72;6228030;28;20054;-72
2023/05/12 12:50:17;;;;;;;3.10;1.60;;;;;;;20.59;55.52;101599.63;6227987;28;20049;-72
2023/05/12 12:53:18;;;;;;;2.50;1.50;;;;;;;20.42;57.68;101585.78;6225964;28;20462;-73
2023/05/12 12:56:20;;;;;;;2.63;1.65;;;;;;;20.36;59.58;101602.31;6228131;28;20422;-72
2023/05/12 12:59:22;;;;;;;2.08;1.80;;;;;;;20.37;56.29;101593.31;6226060;28;20207;-72
2023/05/12 13:02:23;;;;;;;2.85;1.73;;;;;;;20.46;60.09;101591.72;6224495;28;20042;-72
2023/05/12 13:05:26;;;;;;;2.22;1.60;;;;;;;20.77;62.13;101582.94;6226889;28;20069;-72
2023/05/12 13:08:28;;;;;;;2.70;1.80;;;;;;;21.22;56.13;101580.03;6228010;28;20465;-71
2023/05/12 13:11:29;;;;;;;3.65;1.83;;;;;;;21.71;59.08;101577.66;6228023;28;20050;-69
2023/05/12 13:14:31;;;;;;;2.38;1.52;;;;;;;22.13;55.18;101588.28;6225856;28;20037;-69
2023/05/12 13:17:32;;;;;;;3.88;1.90;;;;;;;22.41;49.78;101575.94;6215964;28;20066;-69
2023/05/12 13:20:35;;;;;;;2.00;1.42;;;;;;;22.53;51.57;101580.22;6222044;28;20046;-69
2023/05/12 13:23:36;;;;;;;2.05;1.50;;;;;;;22.72;53.26;101569.50;6227784;28;20049;-72
2023/05/12 13:26:37;;;;;;;2.78;1.73;;;;;;;22.93;51.75;101569.34;6227435;28;20046;-72
2023/05/12 13:29:40;;;;;;;3.28;1.52;;;;;;;22.86;51.97;101570.91;6226912;28;20042;-71
2023/05/12 13:32:42;;;;;;;6.25;1.70;;;;;;;22.71;56.82;101564.25;6227297;28;20133;-72
2023/05/12 13:35:45;;;;;;;2.63;1.50;;;;;;;22.44;52.57;101559.59;6227588;28;20049;-69
2023/05/12 13:38:47;;;;;;;4.50;1.65;;;;;;;22.24;55.06;101548.00;6227154;28;20165;-71
2023/05/12 13:41:48;;;;;;;2.80;1.80;;;;;;;22.67;49.03;101550.31;6227668;28;20060;-71
2023/05/12 13:44:50;;;;;;;2.20;1.50;;;;;;;22.98;48.87;101560.88;6227298;28;20052;-71
2023/05/12 13:47:51;;;;;;;4.88;2.00;;;;;;;23.01;47.25;101547.22;6221909;28;20057;-71
2023/05/12 13:50:54;;;;;;;3.50;1.70;;;;;;;23.17;46.19;101552.84;6225178;28;20046;-72
2023/05/12 13:53:55;;;;;;;3.50;1.63;;;;;;;23.51;48.25;101555.00;6219682;28;20053;-72
2023/05/12 13:56:57;;;;;;;3.33;1.65;;;;;;;23.41;44.08;101552.34;6226508;28;20061;-72